Time,TemperatureF,DewpointF,PressureIn,WindDirection,WindDirectionDegrees,WindSpeedMPH,WindSpeedGustMPH,Humidity,HourlyPrecipIn,Conditions,Clouds,dailyrainin,SolarRadiationWatts/m^2,SoftwareType,DateUTC
2013-05-20 00:11:00,72.9,69.0,30.10,West,275,0.0,2.0,87,0.00,,,0.00,0,weatherlink.com 1.10,2013-05-20 04:11:00,
2013-05-20 00:26:00,72.1,69.0,30.09,West,270,0.0,6.0,90,0.00,,,0.00,0,weatherlink.com 1.10,2013-05-20 04:26:00,
2013-05-20 00:41:00,71.0,69.0,30.08,South,181,0.0,6.0,92,0.01,,,0.01,0,weatherlink.com 1.10,2013-05-20 04:41:00,
2013-05-20 00:56:00,70.5,68.0,30.06,SSE,162,5.0,7.0,93,0.02,,,0.02,0,weatherlink.com 1.10,2013-05-20 04:56:00,
2013-05-20 01:11:00,70.3,69.0,30.05,South,187,5.0,10.0,94,0.02,,,0.02,0,weatherlink.com 1.10,2013-05-20 05:11:00,
2013-05-20 01:27:00,70.3,69.0,30.04,South,190,5.0,10.0,94,0.02,,,0.02,0,weatherlink.com 1.10,2013-05-20 05:27:00,
2013-05-20 01:42:00,70.2,68.0,30.05,South,178,0.0,6.0,93,0.01,,,0.02,0,weatherlink.com 1.10,2013-05-20 05:42:00,
2013-05-20 01:57:00,69.9,68.0,30.05,WSW,244,4.0,8.0,93,0.01,,,0.03,0,weatherlink.com 1.10,2013-05-20 05:57:00,
2013-05-20 02:12:00,69.6,68.0,30.04,WSW,237,1.0,5.0,95,0.01,,,0.03,0,weatherlink.com 1.10,2013-05-20 06:12:00,
2013-05-20 02:27:00,69.4,68.0,30.04,SSW,207,0.0,4.0,95,0.02,,,0.04,0,weatherlink.com 1.10,2013-05-20 06:27:00,
2013-05-20 02:42:00,69.4,68.0,30.03,SSW,207,0.0,4.0,95,0.02,,,0.04,0,weatherlink.com 1.10,2013-05-20 06:42:00,
2013-05-20 02:57:00,69.3,68.0,30.03,SSW,207,0.0,2.0,95,0.01,,,0.04,0,weatherlink.com 1.10,2013-05-20 06:57:00,
2013-05-20 03:12:00,69.1,68.0,30.03,SSW,207,0.0,3.0,95,0.01,,,0.04,0,weatherlink.com 1.10,2013-05-20 07:12:00,
2013-05-20 03:27:00,69.0,68.0,30.03,SSW,207,0.0,0.0,95,0.00,,,0.04,0,weatherlink.com 1.10,2013-05-20 07:27:00,
2013-05-20 03:42:00,68.8,68.0,30.03,SSW,207,0.0,0.0,96,0.00,,,0.04,0,weatherlink.com 1.10,2013-05-20 07:42:00,
2013-05-20 03:57:00,68.6,68.0,30.03,SSW,207,0.0,0.0,96,0.00,,,0.04,0,weatherlink.com 1.10,2013-05-20 07:57:00,
2013-05-20 04:12:00,68.4,67.0,30.04,SSW,207,0.0,0.0,96,0.00,,,0.04,0,weatherlink.com 1.10,2013-05-20 08:12:00,
2013-05-20 04:27:00,68.5,68.0,30.04,SSW,207,2.0,3.0,97,0.00,,,0.04,0,weatherlink.com 1.10,2013-05-20 08:27:00,
2013-05-20 04:42:00,68.8,68.0,30.03,SSE,167,0.0,7.0,97,0.00,,,0.04,0,weatherlink.com 1.10,2013-05-20 08:42:00,
2013-05-20 04:57:00,69.1,68.0,30.04,SSE,166,0.0,2.0,97,0.00,,,0.04,0,weatherlink.com 1.10,2013-05-20 08:57:00,
2013-05-20 05:12:00,69.2,68.0,30.04,SSE,166,0.0,5.0,97,0.00,,,0.04,0,weatherlink.com 1.10,2013-05-20 09:12:00,
2013-05-20 05:27:00,69.4,69.0,30.03,SSE,166,1.0,2.0,97,0.00,,,0.04,0,weatherlink.com 1.10,2013-05-20 09:27:00,
2013-05-20 05:42:00,69.5,69.0,30.04,SSE,166,1.0,5.0,97,0.00,,,0.04,0,weatherlink.com 1.10,2013-05-20 09:42:00,
2013-05-20 05:57:00,69.7,69.0,30.04,SSE,166,0.0,3.0,97,0.00,,,0.04,0,weatherlink.com 1.10,2013-05-20 09:57:00,
2013-05-20 06:12:00,69.8,69.0,30.05,SSE,166,0.0,3.0,97,0.00,,,0.04,0,weatherlink.com 1.10,2013-05-20 10:12:00,
2013-05-20 06:28:00,69.9,69.0,30.05,SSE,166,0.0,0.0,97,0.00,,,0.04,0,weatherlink.com 1.10,2013-05-20 10:28:00,
2013-05-20 06:42:00,70.0,69.0,30.05,SSE,166,0.0,3.0,96,0.00,,,0.04,7,weatherlink.com 1.10,2013-05-20 10:42:00,
2013-05-20 06:57:00,70.1,69.0,30.06,SSE,166,0.0,0.0,97,0.00,,,0.04,21,weatherlink.com 1.10,2013-05-20 10:57:00,
2013-05-20 07:12:00,70.3,69.0,30.06,SE,126,0.0,1.0,97,0.00,,,0.04,35,weatherlink.com 1.10,2013-05-20 11:12:00,
2013-05-20 07:27:00,70.6,70.0,30.07,SE,126,0.0,3.0,97,0.00,,,0.04,47,weatherlink.com 1.10,2013-05-20 11:27:00,
2013-05-20 07:42:00,71.0,70.0,30.07,SE,126,0.0,4.0,96,0.00,,,0.04,56,weatherlink.com 1.10,2013-05-20 11:42:00,
2013-05-20 07:57:00,71.3,70.0,30.08,SSE,148,2.0,7.0,96,0.00,,,0.04,76,weatherlink.com 1.10,2013-05-20 11:57:00,
2013-05-20 08:12:00,71.7,71.0,30.08,SSE,155,6.0,6.0,96,0.00,,,0.04,100,weatherlink.com 1.10,2013-05-20 12:12:00,
2013-05-20 08:27:00,72.2,71.0,30.08,South,174,2.0,5.0,96,0.00,,,0.04,88,weatherlink.com 1.10,2013-05-20 12:27:00,
2013-05-20 08:42:00,72.7,71.0,30.09,South,173,0.0,5.0,95,0.00,,,0.04,151,weatherlink.com 1.10,2013-05-20 12:42:00,
2013-05-20 08:57:00,73.4,72.0,30.08,SSE,163,0.0,8.0,95,0.00,,,0.04,197,weatherlink.com 1.10,2013-05-20 12:57:00,
2013-05-20 09:12:00,74.2,72.0,30.09,SSE,154,0.0,3.0,94,0.00,,,0.04,220,weatherlink.com 1.10,2013-05-20 13:12:00,
2013-05-20 09:27:00,74.9,73.0,30.09,SSE,149,2.0,7.0,93,0.00,,,0.04,244,weatherlink.com 1.10,2013-05-20 13:27:00,
2013-05-20 09:43:00,75.6,73.0,30.09,SSE,157,5.0,9.0,92,0.00,,,0.04,230,weatherlink.com 1.10,2013-05-20 13:43:00,
2013-05-20 09:58:00,75.9,73.0,30.10,SSE,163,0.0,6.0,91,0.00,,,0.04,223,weatherlink.com 1.10,2013-05-20 13:58:00,
2013-05-20 10:13:00,76.2,73.0,30.10,SSE,149,0.0,7.0,90,0.00,,,0.04,241,weatherlink.com 1.10,2013-05-20 14:13:00,
2013-05-20 10:28:00,76.4,73.0,30.11,SE,144,1.0,8.0,90,0.00,,,0.04,241,weatherlink.com 1.10,2013-05-20 14:28:00,
2013-05-20 10:43:00,76.8,73.0,30.11,South,180,3.0,6.0,88,0.00,,,0.04,272,weatherlink.com 1.10,2013-05-20 14:43:00,
2013-05-20 10:58:00,77.3,73.0,30.10,SSE,157,5.0,9.0,87,0.00,,,0.04,362,weatherlink.com 1.10,2013-05-20 14:58:00,
2013-05-20 11:13:00,78.0,73.0,30.10,SE,139,0.0,7.0,84,0.00,,,0.04,387,weatherlink.com 1.10,2013-05-20 15:13:00,
2013-05-20 11:28:00,78.8,74.0,30.10,South,182,0.0,6.0,84,0.00,,,0.04,345,weatherlink.com 1.10,2013-05-20 15:28:00,
2013-05-20 11:43:00,79.3,73.0,30.10,South,182,3.0,5.0,81,0.00,,,0.04,436,weatherlink.com 1.10,2013-05-20 15:43:00,
2013-05-20 11:58:00,79.7,72.0,30.10,South,176,3.0,7.0,76,0.00,,,0.04,469,weatherlink.com 1.10,2013-05-20 15:58:00,
2013-05-20 12:13:00,80.1,72.0,30.10,SSW,209,2.0,6.0,75,0.00,,,0.04,490,weatherlink.com 1.10,2013-05-20 16:13:00,
2013-05-20 12:28:00,80.8,73.0,30.09,SSE,159,4.0,6.0,77,0.00,,,0.04,425,weatherlink.com 1.10,2013-05-20 16:28:00,
2013-05-20 12:43:00,80.2,71.0,30.09,South,181,4.0,8.0,73,0.00,,,0.04,369,weatherlink.com 1.10,2013-05-20 16:43:00,
2013-05-20 12:58:00,80.3,71.0,30.08,South,172,5.0,8.0,73,0.00,,,0.04,334,weatherlink.com 1.10,2013-05-20 16:58:00,
2013-05-20 13:13:00,80.4,71.0,30.08,South,190,0.0,5.0,74,0.00,,,0.04,341,weatherlink.com 1.10,2013-05-20 17:13:00,
2013-05-20 13:27:00,80.9,72.0,30.07,South,190,1.0,4.0,73,0.00,,,0.04,345,weatherlink.com 1.10,2013-05-20 17:27:00,
2013-05-20 13:43:00,80.8,71.0,30.08,SSW,192,1.0,4.0,72,0.00,,,0.04,332,weatherlink.com 1.10,2013-05-20 17:43:00,
2013-05-20 13:58:00,81.1,72.0,30.07,SSW,192,0.0,3.0,74,0.00,,,0.04,315,weatherlink.com 1.10,2013-05-20 17:58:00,
2013-05-20 14:13:00,81.1,70.0,30.07,SSW,192,0.0,4.0,69,0.00,,,0.04,330,weatherlink.com 1.10,2013-05-20 18:13:00,
2013-05-20 14:28:00,81.7,69.0,30.07,SSW,192,0.0,2.0,66,0.00,,,0.04,364,weatherlink.com 1.10,2013-05-20 18:28:00,
2013-05-20 14:43:00,82.1,72.0,30.07,NE,55,2.0,3.0,71,0.00,,,0.04,394,weatherlink.com 1.10,2013-05-20 18:43:00,
2013-05-20 14:58:00,81.8,73.0,30.07,East,85,7.0,8.0,75,0.00,,,0.04,399,weatherlink.com 1.10,2013-05-20 18:58:00,
2013-05-20 15:13:00,80.2,73.0,30.06,SE,128,4.0,10.0,78,0.00,,,0.04,327,weatherlink.com 1.10,2013-05-20 19:13:00,
2013-05-20 15:28:00,79.2,73.0,30.06,SE,144,2.0,9.0,80,0.00,,,0.04,234,weatherlink.com 1.10,2013-05-20 19:28:00,
2013-05-20 15:43:00,78.6,72.0,30.05,ESE,121,3.0,10.0,81,0.00,,,0.04,320,weatherlink.com 1.10,2013-05-20 19:43:00,
2013-05-20 15:58:00,78.7,72.0,30.04,SE,133,0.0,11.0,80,0.00,,,0.04,582,weatherlink.com 1.10,2013-05-20 19:58:00,
2013-05-20 16:13:00,80.2,74.0,30.04,East,101,0.0,11.0,80,0.00,,,0.04,728,weatherlink.com 1.10,2013-05-20 20:13:00,
2013-05-20 16:27:00,81.1,73.0,30.03,ESE,122,3.0,11.0,77,0.00,,,0.04,694,weatherlink.com 1.10,2013-05-20 20:27:00,
2013-05-20 16:43:00,81.2,73.0,30.04,SE,124,4.0,12.0,76,0.00,,,0.04,663,weatherlink.com 1.10,2013-05-20 20:43:00,
2013-05-20 16:58:00,81.8,73.0,30.04,East,86,5.0,10.0,74,0.00,,,0.04,563,weatherlink.com 1.10,2013-05-20 20:58:00,
2013-05-20 17:13:00,80.9,73.0,30.04,SE,144,5.0,9.0,76,0.00,,,0.04,482,weatherlink.com 1.10,2013-05-20 21:13:00,
2013-05-20 17:28:00,81.2,72.0,30.05,SE,133,4.0,9.0,73,0.00,,,0.04,343,weatherlink.com 1.10,2013-05-20 21:28:00,
2013-05-20 17:43:00,80.9,73.0,30.05,SSE,151,4.0,14.0,76,0.00,,,0.04,494,weatherlink.com 1.10,2013-05-20 21:43:00,
2013-05-20 17:58:00,80.9,72.0,30.04,South,187,4.0,12.0,75,0.00,,,0.04,425,weatherlink.com 1.10,2013-05-20 21:58:00,
2013-05-20 18:13:00,79.8,71.0,30.03,SSE,148,5.0,14.0,75,0.00,,,0.04,257,weatherlink.com 1.10,2013-05-20 22:13:00,
2013-05-20 18:28:00,79.4,72.0,30.03,SSE,150,8.0,13.0,77,0.00,,,0.04,346,weatherlink.com 1.10,2013-05-20 22:28:00,
2013-05-20 18:43:00,77.9,71.0,30.03,SSE,148,1.0,9.0,78,0.00,,,0.04,107,weatherlink.com 1.10,2013-05-20 22:43:00,
2013-05-20 18:58:00,77.0,70.0,30.03,South,177,3.0,11.0,80,0.00,,,0.04,70,weatherlink.com 1.10,2013-05-20 22:58:00,
2013-05-20 19:14:00,76.5,71.0,30.04,SSE,148,2.0,9.0,83,0.00,,,0.04,54,weatherlink.com 1.10,2013-05-20 23:14:00,
2013-05-20 19:29:00,76.0,71.0,30.04,SSE,152,3.0,9.0,84,0.00,,,0.04,40,weatherlink.com 1.10,2013-05-20 23:29:00,
2013-05-20 19:44:00,75.8,71.0,30.04,SE,146,1.0,5.0,85,0.00,,,0.04,25,weatherlink.com 1.10,2013-05-20 23:44:00,
2013-05-20 19:59:00,75.5,71.0,30.05,SSE,150,2.0,7.0,87,0.00,,,0.04,18,weatherlink.com 1.10,2013-05-20 23:59:00,
2013-05-20 20:14:00,75.1,71.0,30.05,SSE,150,2.0,6.0,88,0.00,,,0.04,7,weatherlink.com 1.10,2013-05-21 00:14:00,
2013-05-20 20:29:00,74.8,71.0,30.05,SSE,150,0.0,2.0,89,0.00,,,0.04,0,weatherlink.com 1.10,2013-05-21 00:29:00,
2013-05-20 20:44:00,74.4,71.0,30.06,SSE,150,0.0,2.0,89,0.00,,,0.04,0,weatherlink.com 1.10,2013-05-21 00:44:00,
2013-05-20 20:59:00,74.1,71.0,30.07,SSE,150,0.0,1.0,90,0.00,,,0.04,0,weatherlink.com 1.10,2013-05-21 00:59:00,
2013-05-20 21:14:00,73.7,71.0,30.07,SSE,150,0.0,1.0,91,0.00,,,0.04,0,weatherlink.com 1.10,2013-05-21 01:14:00,
2013-05-20 21:29:00,73.3,71.0,30.08,SSE,150,0.0,0.0,92,0.00,,,0.04,0,weatherlink.com 1.10,2013-05-21 01:29:00,
2013-05-20 21:44:00,72.9,71.0,30.07,SSE,150,0.0,0.0,93,0.00,,,0.04,0,weatherlink.com 1.10,2013-05-21 01:44:00,
2013-05-20 21:59:00,72.5,70.0,30.07,SSE,150,0.0,1.0,93,0.00,,,0.04,0,weatherlink.com 1.10,2013-05-21 01:59:00,
2013-05-20 22:14:00,72.1,70.0,30.08,SSE,150,0.0,0.0,93,0.00,,,0.04,0,weatherlink.com 1.10,2013-05-21 02:14:00,
2013-05-20 22:29:00,71.9,71.0,30.07,SSE,150,0.0,1.0,95,0.00,,,0.04,0,weatherlink.com 1.10,2013-05-21 02:29:00,
2013-05-20 22:44:00,71.8,70.0,30.07,SSE,150,0.0,1.0,95,0.00,,,0.04,0,weatherlink.com 1.10,2013-05-21 02:44:00,
2013-05-20 22:59:00,71.5,70.0,30.07,SSE,150,0.0,0.0,95,0.00,,,0.04,0,weatherlink.com 1.10,2013-05-21 02:59:00,
2013-05-20 23:14:00,71.0,69.0,30.06,SSE,150,0.0,0.0,94,0.00,,,0.04,0,weatherlink.com 1.10,2013-05-21 03:14:00,
2013-05-20 23:29:00,70.6,69.0,30.06,SSE,150,0.0,0.0,95,0.00,,,0.04,0,weatherlink.com 1.10,2013-05-21 03:29:00,
2013-05-20 23:44:00,70.3,69.0,30.05,SSE,150,0.0,0.0,95,0.00,,,0.04,0,weatherlink.com 1.10,2013-05-21 03:44:00,
2013-05-20 23:59:00,69.8,68.0,30.05,SSE,150,0.0,0.0,95,0.00,,,0.04,0,weatherlink.com 1.10,2013-05-21 03:59:00,